createdAt,value
2022-11-21T00:00:25.366Z,99866.38
2022-11-21T00:01:28.777Z,99864.69
2022-11-21T00:02:30.767Z,99868.95
2022-11-21T00:03:38.079Z,99865.48
2022-11-21T00:04:40.033Z,99862.91
2022-11-21T00:07:00.634Z,99867.97
2022-11-21T00:08:04.482Z,99873.33
2022-11-21T00:09:06.597Z,99879.33
2022-11-21T00:10:09.321Z,99879.29
2022-11-21T00:11:11.703Z,99879.30
2022-11-21T00:12:15.813Z,99874.08
2022-11-21T00:13:19.940Z,99868.95
2022-11-21T00:14:22.032Z,99868.91
2022-11-21T00:15:26.187Z,99868.12
2022-11-21T00:16:29.107Z,99859.37
2022-11-21T00:17:31.213Z,99855.87
2022-11-21T00:18:34.314Z,99849.83
2022-11-21T00:19:38.498Z,99855.09
2022-11-21T00:20:41.782Z,99860.32
2022-11-21T00:21:43.709Z,99859.34
2022-11-21T00:22:47.070Z,99854.27
2022-11-21T00:23:48.970Z,99854.19
2022-11-21T00:24:54.158Z,99844.71
2022-11-21T00:25:54.774Z,99849.93
2022-11-21T00:26:56.891Z,99838.63
2022-11-21T00:27:59.358Z,99837.73
2022-11-21T00:29:01.236Z,99845.55
2022-11-21T00:30:05.611Z,99846.50
2022-11-21T00:31:09.063Z,99847.36
2022-11-21T00:32:11.883Z,99848.48
2022-11-21T00:33:14.025Z,99850.04
2022-11-21T00:34:15.883Z,99850.00
2022-11-21T00:35:17.861Z,99849.11
2022-11-21T00:36:20.527Z,99835.14
2022-11-21T00:37:22.497Z,99832.56
2022-11-21T00:38:26.649Z,99831.70
2022-11-21T00:39:28.552Z,99829.09
2022-11-21T00:40:30.560Z,99823.94
2022-11-21T00:41:32.807Z,99829.09
2022-11-21T00:42:34.714Z,99829.09
2022-11-21T00:43:36.585Z,99824.71
2022-11-21T00:44:38.437Z,99826.59
2022-11-21T00:45:40.328Z,99829.33
2022-11-21T00:46:44.214Z,99824.09
2022-11-21T00:47:46.214Z,99810.20
2022-11-21T00:48:48.167Z,99808.39
2022-11-21T00:49:50.051Z,99804.96
2022-11-21T00:50:52.242Z,99808.34
2022-11-21T00:51:54.113Z,99812.63
2022-11-21T00:52:56.984Z,99806.53
2022-11-21T00:53:58.989Z,99801.32
2022-11-21T00:55:01.373Z,99802.23
2022-11-21T00:56:03.758Z,99805.65
2022-11-21T00:57:05.904Z,99815.16
2022-11-21T00:58:07.764Z,99815.39
2022-11-21T00:59:09.735Z,99810.92
2022-11-21T01:00:14.772Z,99810.92
2022-11-21T01:01:16.737Z,99811.77
2022-11-21T01:02:19.033Z,99810.12
2022-11-21T01:03:21.003Z,99811.93
2022-11-21T01:04:23.250Z,99804.92
2022-11-21T01:05:25.137Z,99804.84
2022-11-21T01:06:27.116Z,99806.56
2022-11-21T01:07:29.128Z,99804.08
2022-11-21T01:08:31.348Z,99809.22
2022-11-21T01:09:36.671Z,99808.34
2022-11-21T01:10:38.887Z,99808.39
2022-11-21T01:11:40.862Z,99804.00
2022-11-21T01:12:42.723Z,99810.92
2022-11-21T01:13:45.662Z,99800.57
2022-11-21T01:14:47.552Z,99804.04
2022-11-21T01:15:49.392Z,99808.33
2022-11-21T01:16:51.345Z,99816.13
2022-11-21T01:17:53.215Z,99813.62
2022-11-21T01:18:56.543Z,99812.77
2022-11-21T01:19:58.693Z,99798.11
2022-11-21T01:21:03.316Z,99799.80
2022-11-21T01:22:05.606Z,99808.41
2022-11-21T01:23:07.571Z,99800.66
2022-11-21T01:24:11.690Z,99801.46
2022-11-21T01:25:15.825Z,99801.42
2022-11-21T01:26:22.610Z,99801.42
2022-11-21T01:27:24.628Z,99793.66
2022-11-21T01:28:26.686Z,99798.80
2022-11-21T01:29:28.551Z,99802.21
2022-11-21T01:30:30.522Z,99799.72
2022-11-21T01:31:34.662Z,99804.81
2022-11-21T01:32:36.546Z,99797.03
2022-11-21T01:33:41.612Z,99791.86
2022-11-21T01:34:43.656Z,99800.47
2022-11-21T01:35:47.110Z,99803.92
2022-11-21T01:36:49.107Z,99803.90
2022-11-21T01:37:51.399Z,99810.02
2022-11-21T01:38:55.185Z,99808.27
2022-11-21T01:39:57.115Z,99803.94
2022-11-21T01:40:59.227Z,99802.37
2022-11-21T01:42:01.081Z,99797.19
2022-11-21T01:43:12.769Z,99789.22
2022-11-21T01:44:25.688Z,99788.39
2022-11-21T01:45:49.963Z,99794.38
2022-11-21T01:46:53.095Z,99792.63
2022-11-21T01:47:55.386Z,99786.59
2022-11-21T01:49:13.521Z,99781.52
2022-11-21T01:50:17.461Z,99780.55
2022-11-21T01:51:35.087Z,99773.63
2022-11-21T01:52:38.675Z,99777.93
2022-11-21T01:53:44.352Z,99772.73
2022-11-21T01:54:52.723Z,99771.92
2022-11-21T01:55:54.969Z,99775.35
2022-11-21T01:57:09.803Z,99772.84
2022-11-21T01:58:12.907Z,99770.20
2022-11-21T01:59:18.904Z,99770.16
2022-11-21T02:00:25.503Z,99773.54
2022-11-21T02:01:28.912Z,99779.58
2022-11-21T02:02:34.722Z,99777.04
2022-11-21T02:03:37.944Z,99777.00
2022-11-21T02:04:42.838Z,99781.34
2022-11-21T02:05:45.265Z,99782.23
2022-11-21T02:06:48.831Z,99780.51
2022-11-21T02:07:53.836Z,99788.53
2022-11-21T02:08:59.476Z,99789.33
2022-11-21T02:10:03.736Z,99783.27
2022-11-21T02:11:09.406Z,99790.14
2022-11-21T02:12:17.805Z,99790.05
2022-11-21T02:13:20.332Z,99796.98
2022-11-21T02:14:22.800Z,99806.50
2022-11-21T02:15:27.788Z,99802.98
2022-11-21T02:16:30.498Z,99809.08
2022-11-21T02:17:32.943Z,99809.02
2022-11-21T02:18:35.553Z,99806.41
2022-11-21T02:19:53.629Z,99813.37
2022-11-21T02:21:17.313Z,99809.86
2022-11-21T02:22:28.947Z,99818.52
2022-11-21T02:23:37.601Z,99804.64
2022-11-21T02:24:46.048Z,99805.39
2022-11-21T02:25:48.398Z,99797.80
2022-11-21T02:26:50.490Z,99793.40
2022-11-21T02:27:56.822Z,99791.62
2022-11-21T02:28:59.151Z,99790.69
2022-11-21T02:30:04.600Z,99790.73
2022-11-21T02:31:06.499Z,99792.44
2022-11-21T02:32:08.352Z,99796.80
2022-11-21T02:33:11.366Z,99792.39
2022-11-21T02:34:13.599Z,99792.44
2022-11-21T02:35:19.117Z,99797.67
2022-11-21T02:36:37.330Z,99796.95
2022-11-21T02:37:40.129Z,99794.29
2022-11-21T02:38:41.982Z,99794.20
2022-11-21T02:39:46.780Z,99792.52
2022-11-21T02:40:59.130Z,99795.98
2022-11-21T02:43:25.189Z,99813.93
2022-11-21T02:44:30.929Z,99819.35
2022-11-21T02:45:36.581Z,99818.52
2022-11-21T02:46:50.932Z,99806.38
2022-11-21T02:48:02.227Z,99808.93
2022-11-21T02:49:02.613Z,99814.11
2022-11-21T02:50:24.968Z,99815.08
2022-11-21T02:51:28.920Z,99814.23
2022-11-21T02:52:30.859Z,99808.20
2022-11-21T02:53:32.710Z,99799.52
2022-11-21T02:54:34.568Z,99797.72
2022-11-21T02:55:36.819Z,99788.18
2022-11-21T02:56:38.792Z,99785.49
2022-11-21T02:57:42.052Z,99795.09
2022-11-21T02:58:44.119Z,99785.63
2022-11-21T02:59:45.987Z,99798.55
2022-11-21T03:00:48.114Z,99790.80
2022-11-21T03:01:50.743Z,99787.23
2022-11-21T03:02:52.615Z,99801.09
2022-11-21T03:03:54.496Z,99789.01
2022-11-21T03:04:56.383Z,99794.16
2022-11-21T03:05:58.388Z,99801.05
2022-11-21T03:07:00.394Z,99803.69
2022-11-21T03:08:03.544Z,99801.09
2022-11-21T03:09:05.415Z,99801.94
2022-11-21T03:10:08.971Z,99803.65
2022-11-21T03:11:10.937Z,99796.80
2022-11-21T03:12:13.595Z,99787.19
2022-11-21T03:13:15.482Z,99789.79
2022-11-21T03:14:17.462Z,99787.10
2022-11-21T03:15:19.331Z,99782.03
2022-11-21T03:16:21.375Z,99786.28
2022-11-21T03:17:23.267Z,99783.72
2022-11-21T03:18:25.159Z,99783.72
2022-11-21T03:19:27.016Z,99787.14
2022-11-21T03:20:30.754Z,99787.95
2022-11-21T03:21:32.635Z,99791.43
2022-11-21T03:22:34.761Z,99788.09
2022-11-21T03:23:37.175Z,99789.81
2022-11-21T03:24:39.181Z,99793.20
2022-11-21T03:25:41.158Z,99799.19
2022-11-21T03:26:43.157Z,99803.53
2022-11-21T03:27:45.438Z,99800.93
2022-11-21T03:28:47.321Z,99799.19
2022-11-21T03:29:49.179Z,99805.39
2022-11-21T03:30:51.152Z,99804.48
2022-11-21T03:31:53.006Z,99804.45
2022-11-21T03:32:55.968Z,99810.55
2022-11-21T03:33:58.090Z,99816.57
2022-11-21T03:35:00.062Z,99816.65
2022-11-21T03:36:02.834Z,99811.45
2022-11-21T03:37:04.819Z,99813.97
2022-11-21T03:38:06.695Z,99807.08
2022-11-21T03:39:10.342Z,99809.63
2022-11-21T03:40:13.162Z,99802.66
2022-11-21T03:41:15.018Z,99806.17
2022-11-21T03:42:16.872Z,99814.81
2022-11-21T03:43:18.798Z,99812.19
2022-11-21T03:44:20.708Z,99813.10
2022-11-21T03:45:22.598Z,99820.84
2022-11-21T03:46:25.836Z,99820.84
2022-11-21T03:47:27.708Z,99822.52
2022-11-21T03:48:29.586Z,99820.77
2022-11-21T03:49:31.559Z,99811.22
2022-11-21T03:50:33.829Z,99809.55
2022-11-21T03:51:36.795Z,99803.47
2022-11-21T03:52:38.661Z,99799.34
2022-11-21T03:53:41.099Z,99795.73
2022-11-21T03:54:43.015Z,99795.73
2022-11-21T03:55:44.885Z,99799.14
2022-11-21T03:56:46.929Z,99798.28
2022-11-21T03:57:48.881Z,99798.35
2022-11-21T03:58:50.761Z,99784.52
2022-11-21T03:59:52.633Z,99788.78
2022-11-21T04:00:54.587Z,99781.03
2022-11-21T04:01:56.513Z,99778.34
2022-11-21T04:02:58.517Z,99785.22
2022-11-21T04:04:00.421Z,99787.84
2022-11-21T04:05:02.547Z,99786.92
2022-11-21T04:06:04.769Z,99789.52
2022-11-21T04:07:06.824Z,99784.25
2022-11-21T04:08:09.953Z,99781.91
2022-11-21T04:09:11.852Z,99778.39
2022-11-21T04:10:15.517Z,99790.47
2022-11-21T04:11:17.926Z,99799.17
2022-11-21T04:12:19.903Z,99801.77
2022-11-21T04:13:22.904Z,99800.06
2022-11-21T04:14:24.800Z,99806.06
2022-11-21T04:15:26.654Z,99805.15
2022-11-21T04:16:28.643Z,99800.84
2022-11-21T04:17:30.593Z,99799.92
2022-11-21T04:18:35.365Z,99794.75
2022-11-21T04:19:37.280Z,99793.84
2022-11-21T04:20:40.612Z,99789.55
2022-11-21T04:21:42.549Z,99792.97
2022-11-21T04:22:44.415Z,99784.25
2022-11-21T04:23:46.282Z,99784.25
2022-11-21T04:24:48.254Z,99777.39
2022-11-21T04:25:50.564Z,99780.80
2022-11-21T04:26:55.764Z,99775.59
2022-11-21T06:04:22.425Z,99703.05
2022-11-21T06:05:24.292Z,99698.10
2022-11-21T06:06:26.267Z,99707.50
2022-11-21T06:07:28.395Z,99706.64
2022-11-21T06:08:33.601Z,99707.59
2022-11-21T06:09:35.493Z,99715.33
2022-11-21T06:10:37.457Z,99713.48
2022-11-21T06:11:39.313Z,99713.40
2022-11-21T06:12:41.289Z,99715.08
2022-11-21T06:13:43.869Z,99702.02
2022-11-21T06:14:45.742Z,99710.67
2022-11-21T06:15:51.513Z,99705.50
2022-11-21T06:16:53.610Z,99709.73
2022-11-21T06:17:55.591Z,99705.34
2022-11-21T06:18:58.794Z,99704.38
2022-11-21T06:20:01.775Z,99706.02
2022-11-21T06:21:06.740Z,99706.89
2022-11-21T06:22:08.897Z,99698.14
2022-11-21T06:23:11.824Z,99692.14
2022-11-21T06:24:17.008Z,99691.09
2022-11-21T06:25:17.590Z,99698.80
2022-11-21T06:26:22.225Z,99706.65
2022-11-21T06:27:24.118Z,99707.45
2022-11-21T06:28:27.267Z,99703.17
2022-11-21T06:29:29.169Z,99707.50
2022-11-21T06:30:31.131Z,99700.55
2022-11-21T06:31:33.020Z,99704.95
2022-11-21T06:32:38.398Z,99717.05
2022-11-21T06:33:41.801Z,99707.50
2022-11-21T06:34:43.750Z,99716.17
2022-11-21T06:35:45.637Z,99703.22
2022-11-21T06:36:48.631Z,99707.45
2022-11-21T06:37:53.545Z,99701.41
2022-11-21T06:38:55.876Z,99700.55
2022-11-21T06:39:58.756Z,99701.35
2022-11-21T06:41:05.805Z,99712.55
2022-11-21T06:42:07.934Z,99709.03
2022-11-21T06:43:09.911Z,99701.19
2022-11-21T06:44:11.785Z,99702.03
2022-11-21T06:45:13.954Z,99699.38
2022-11-21T06:46:16.765Z,99691.61
2022-11-21T06:47:18.639Z,99683.91
2022-11-21T06:48:20.488Z,99686.48
2022-11-21T06:49:22.384Z,99689.80
2022-11-21T06:50:25.151Z,99698.48
2022-11-21T06:51:27.017Z,99698.53
2022-11-21T06:52:36.586Z,99697.53
2022-11-21T06:53:38.790Z,99705.33
2022-11-21T06:54:40.745Z,99709.73
2022-11-21T06:55:42.616Z,99700.84
2022-11-21T06:56:44.805Z,99705.25
2022-11-21T06:57:46.677Z,99707.80
2022-11-21T06:58:48.525Z,99703.56
2022-11-21T06:59:50.383Z,99695.88
2022-11-21T07:00:52.469Z,99699.20
2022-11-21T07:01:54.435Z,99696.83
2022-11-21T07:03:03.291Z,99704.48
2022-11-21T07:04:04.422Z,99708.67
2022-11-21T07:05:06.636Z,99700.77
2022-11-21T07:06:08.709Z,99698.17
2022-11-21T07:07:10.759Z,99704.35
2022-11-21T07:08:13.550Z,99697.40
2022-11-21T07:09:33.668Z,99710.35
2022-11-21T07:10:20.460Z,99704.37
2022-11-21T07:11:24.983Z,99700.88
2022-11-21T07:12:26.129Z,99697.30
2022-11-21T07:13:28.961Z,99708.39
2022-11-21T07:14:30.866Z,99704.33
2022-11-21T07:15:32.717Z,99706.88
2022-11-21T07:16:34.807Z,99705.05
2022-11-21T07:17:37.876Z,99714.83
2022-11-21T07:18:40.191Z,99704.28
2022-11-21T07:19:42.086Z,99704.99
2022-11-21T07:20:44.524Z,99715.34
2022-11-21T07:21:46.406Z,99720.76
2022-11-21T07:22:48.285Z,99723.30
2022-11-21T07:23:50.645Z,99733.77
2022-11-21T07:24:52.530Z,99735.44
2022-11-21T07:25:54.955Z,99735.44
2022-11-21T07:26:59.073Z,99731.88
2022-11-21T07:28:02.651Z,99728.35
2022-11-21T07:29:04.533Z,99730.05
2022-11-21T07:30:08.301Z,99735.17
2022-11-21T07:31:13.910Z,99734.27
2022-11-21T07:32:14.760Z,99743.70
2022-11-21T07:33:16.643Z,99735.97
2022-11-21T07:34:18.510Z,99728.03
2022-11-21T07:35:20.401Z,99723.70
2022-11-21T07:36:22.479Z,99716.77
2022-11-21T07:37:24.373Z,99720.16
2022-11-21T07:38:26.464Z,99715.78
2022-11-21T07:39:28.793Z,99718.30
2022-11-21T07:40:31.137Z,99721.75
2022-11-21T07:41:34.097Z,99720.79
2022-11-21T07:42:36.012Z,99716.77
2022-11-21T07:43:37.920Z,99714.17
2022-11-21T07:44:39.870Z,99709.61
2022-11-21T07:45:41.838Z,99713.09
2022-11-21T07:46:43.889Z,99705.34
2022-11-21T07:47:45.998Z,99709.19
2022-11-21T07:48:50.099Z,99703.81
2022-11-21T07:49:51.993Z,99700.28
2022-11-21T07:50:54.147Z,99704.47
2022-11-21T07:51:56.030Z,99705.31
2022-11-21T07:54:10.374Z,99697.73
2022-11-21T07:55:12.317Z,99706.47
2022-11-21T07:56:15.506Z,99704.64
2022-11-21T07:57:17.498Z,99704.99
2022-11-21T07:58:19.851Z,99695.22
2022-11-21T07:59:21.759Z,99697.73
2022-11-21T08:00:24.181Z,99696.72
2022-11-21T08:01:26.359Z,99698.47
2022-11-21T08:02:29.210Z,99696.80
2022-11-21T08:03:34.431Z,99702.89
2022-11-21T08:04:37.600Z,99697.66
2022-11-21T08:05:42.646Z,99695.84
2022-11-21T08:06:45.048Z,99687.01
2022-11-21T08:07:47.273Z,99683.47
2022-11-21T08:08:53.400Z,99688.00
2022-11-21T08:09:55.295Z,99690.46
2022-11-21T08:10:57.412Z,99684.44
2022-11-21T08:11:59.261Z,99690.49
2022-11-21T08:13:01.151Z,99686.98
2022-11-21T08:14:03.566Z,99695.58
2022-11-21T08:15:06.880Z,99699.03
2022-11-21T08:16:09.879Z,99695.58
2022-11-21T08:17:11.750Z,99698.18
2022-11-21T08:18:16.871Z,99695.67
2022-11-21T08:19:18.806Z,99698.24
2022-11-21T08:20:20.876Z,99697.30
2022-11-21T08:21:22.788Z,99693.77
2022-11-21T08:22:24.948Z,99693.88
2022-11-21T08:23:26.919Z,99694.59
2022-11-21T08:24:28.768Z,99691.98
2022-11-21T08:25:32.015Z,99693.77
2022-11-21T08:26:34.280Z,99688.56
2022-11-21T08:27:37.916Z,99702.42
2022-11-21T08:28:39.894Z,99700.61
2022-11-21T08:29:41.962Z,99691.98
2022-11-21T08:30:44.234Z,99698.91
2022-11-21T08:31:46.212Z,99702.39
2022-11-21T08:32:48.089Z,99698.70
2022-11-21T08:33:49.967Z,99688.34
2022-11-21T08:34:51.917Z,99688.50
2022-11-21T08:35:53.784Z,99701.86
2022-11-21T08:36:56.251Z,99697.19
2022-11-21T08:38:00.088Z,99693.70
2022-11-21T08:39:04.155Z,99690.16
2022-11-21T08:40:07.992Z,99693.70
2022-11-21T08:41:17.480Z,99687.59
2022-11-21T08:42:17.075Z,99691.08
2022-11-21T08:43:18.937Z,99693.67
2022-11-21T08:44:20.831Z,99686.63
2022-11-21T08:45:22.687Z,99691.86
2022-11-21T08:46:25.300Z,99683.41
2022-11-21T08:47:27.199Z,99682.41
2022-11-21T08:48:29.069Z,99681.56
2022-11-21T08:49:30.940Z,99678.15
2022-11-21T08:50:33.009Z,99672.03
2022-11-21T08:51:36.226Z,99683.59
2022-11-21T08:52:38.134Z,99679.95
2022-11-21T08:53:40.156Z,99680.05
2022-11-21T08:54:43.469Z,99674.84
2022-11-21T08:55:45.447Z,99672.06
2022-11-21T08:56:47.890Z,99673.12
2022-11-21T08:57:49.896Z,99662.56
2022-11-21T08:58:51.983Z,99661.68
2022-11-21T08:59:53.860Z,99657.41
2022-11-21T09:00:55.946Z,99659.08
2022-11-21T09:01:57.908Z,99659.08
2022-11-21T09:03:04.937Z,99665.04
2022-11-21T09:04:08.954Z,99655.44
2022-11-21T09:05:13.106Z,99654.87
2022-11-21T09:06:15.407Z,99652.30
2022-11-21T09:07:17.452Z,99645.15
2022-11-21T09:08:19.372Z,99650.45
2022-11-21T09:09:25.317Z,99643.48
2022-11-21T09:10:26.610Z,99638.82
2022-11-21T09:11:28.617Z,99635.16
2022-11-21T09:12:30.899Z,99636.24
2022-11-21T09:13:34.294Z,99633.53
2022-11-21T09:14:36.172Z,99640.16
2022-11-21T09:15:38.148Z,99638.52
2022-11-21T09:16:40.136Z,99642.70
2022-11-21T09:17:42.108Z,99642.61
2022-11-21T09:18:43.974Z,99645.30
2022-11-21T09:19:47.036Z,99645.13
2022-11-21T09:20:49.173Z,99647.60
2022-11-21T09:21:52.130Z,99646.84
2022-11-21T09:22:54.000Z,99652.84
2022-11-21T09:23:55.875Z,99641.64
2022-11-21T09:24:57.735Z,99647.75
2022-11-21T09:26:01.356Z,99642.48
2022-11-21T09:27:03.265Z,99644.52
2022-11-21T09:28:07.259Z,99643.52
2022-11-21T09:29:09.340Z,99641.67
2022-11-21T09:30:12.117Z,99637.34
2022-11-21T09:31:14.094Z,99632.29
2022-11-21T09:32:15.986Z,99635.55
2022-11-21T09:33:17.845Z,99636.49
2022-11-21T09:34:19.722Z,99642.42
2022-11-21T09:35:21.593Z,99637.16
2022-11-21T09:36:23.577Z,99643.39
2022-11-21T09:37:25.457Z,99650.30
2022-11-21T09:38:27.704Z,99656.22
2022-11-21T09:39:29.850Z,99652.78
2022-11-21T09:40:34.418Z,99655.28
2022-11-21T09:41:45.926Z,99656.20
2022-11-21T09:43:07.784Z,99651.99
2022-11-21T09:44:29.162Z,99653.69
2022-11-21T09:45:36.141Z,99662.31
2022-11-21T09:46:41.937Z,99655.34
2022-11-21T09:47:47.607Z,99661.47
2022-11-21T09:50:16.824Z,99652.36
2022-11-21T09:51:21.837Z,99651.77
2022-11-21T09:52:27.492Z,99648.23
2022-11-21T09:53:33.378Z,99653.38
2022-11-21T09:54:39.148Z,99643.05
2022-11-21T09:55:51.053Z,99649.20
2022-11-21T09:56:55.586Z,99643.89
2022-11-21T09:58:03.969Z,99639.66
2022-11-21T09:59:15.960Z,99634.39
2022-11-21T10:00:21.834Z,99643.23
2022-11-21T10:01:23.790Z,99638.00
2022-11-21T10:02:25.720Z,99639.97
2022-11-21T10:03:31.444Z,99640.91
2022-11-21T10:04:33.473Z,99635.83
2022-11-21T10:05:44.739Z,99634.02
2022-11-21T10:06:51.246Z,99626.83
2022-11-21T10:07:55.647Z,99638.06
2022-11-21T10:09:09.845Z,99637.19
2022-11-21T10:10:25.654Z,99634.58
2022-11-21T10:11:49.033Z,99632.66
2022-11-21T10:13:03.712Z,99625.80
2022-11-21T10:14:32.630Z,99625.42
2022-11-21T10:15:44.373Z,99613.50
2022-11-21T10:16:53.108Z,99606.14
2022-11-21T10:18:15.739Z,99609.44
2022-11-21T10:19:39.328Z,99613.16
2022-11-21T10:20:51.446Z,99607.59
2022-11-21T10:22:08.054Z,99610.95
2022-11-21T10:23:26.036Z,99611.62
2022-11-21T10:24:50.003Z,99604.56
2022-11-21T10:26:01.150Z,99606.13
2022-11-21T10:27:09.323Z,99606.95
2022-11-21T10:28:18.542Z,99599.92
2022-11-21T10:29:32.913Z,99597.31
2022-11-21T14:47:25.731Z,99045.65
2022-11-21T14:48:30.190Z,99055.17
2022-11-21T14:49:32.325Z,99049.94
2022-11-21T14:50:34.634Z,99041.25
2022-11-21T14:51:37.086Z,99047.25
2022-11-21T14:52:41.501Z,99053.30
2022-11-21T14:53:47.113Z,99054.04
2022-11-21T14:56:02.028Z,99059.28
2022-11-21T14:57:08.401Z,99060.97
2022-11-21T15:03:20.777Z,99035.75
2022-11-21T15:04:29.171Z,99044.61
2022-11-21T15:06:00.615Z,99039.32
2022-11-21T15:06:43.301Z,99044.48
2022-11-21T15:09:45.971Z,99040.62
2022-11-21T15:10:59.515Z,99038.10
2022-11-21T15:13:15.141Z,99032.16
2022-11-21T15:14:27.821Z,99039.34
2022-11-21T15:15:36.107Z,99036.73
2022-11-21T15:16:38.489Z,99046.19
2022-11-21T15:18:03.469Z,99047.86
2022-11-21T15:18:45.065Z,99057.30
2022-11-21T15:19:50.668Z,99062.45
2022-11-21T15:20:56.264Z,99071.94
2022-11-21T15:22:01.264Z,99077.14
2022-11-21T15:23:03.213Z,99079.70
2022-11-21T15:24:31.348Z,99069.38
2022-11-21T15:25:47.307Z,99069.38
2022-11-21T15:26:49.748Z,99072.69
2022-11-21T15:28:01.168Z,99072.52
2022-11-21T15:29:06.891Z,99067.22
2022-11-21T15:30:13.560Z,99070.70
2022-11-21T15:31:20.270Z,99069.11
2022-11-21T15:32:22.258Z,99055.09
2022-11-21T15:33:24.148Z,99055.92
2022-11-21T15:34:41.664Z,99050.80
2022-11-21T15:35:54.034Z,99051.33
2022-11-21T15:37:17.073Z,99048.11
2022-11-21T15:38:27.226Z,99047.19
2022-11-21T15:39:29.957Z,99041.28
2022-11-21T15:40:32.019Z,99044.59
2022-11-21T15:41:35.995Z,99044.59
2022-11-21T15:42:38.546Z,99045.46
2022-11-21T15:44:04.281Z,99047.71
2022-11-21T15:45:21.783Z,99056.44
2022-11-21T15:46:26.907Z,99055.61
2022-11-21T15:47:29.318Z,99067.83
2022-11-21T15:48:31.243Z,99067.74
2022-11-21T15:49:33.691Z,99065.84
2022-11-21T15:50:36.139Z,99058.73
2022-11-21T15:52:06.118Z,99065.89
2022-11-21T15:52:49.753Z,99056.22
2022-11-21T15:53:52.415Z,99048.63
2022-11-21T15:54:54.442Z,99054.54
2022-11-21T15:55:56.316Z,99053.70
2022-11-21T15:56:58.493Z,99045.72
2022-11-21T15:58:00.669Z,99037.11
2022-11-21T15:59:02.632Z,99038.08
2022-11-21T16:00:05.813Z,99027.48
2022-11-21T16:01:18.971Z,99024.88
2022-11-21T16:02:20.938Z,99019.72
2022-11-21T16:03:22.794Z,99018.93
2022-11-21T16:04:26.103Z,99008.42
2022-11-21T16:05:28.485Z,99010.18
2022-11-21T16:06:31.120Z,98997.11
2022-11-21T16:07:33.036Z,99000.66
2022-11-21T16:08:35.372Z,99000.46
2022-11-21T16:09:38.374Z,98984.94
2022-11-21T16:10:40.461Z,98973.63
2022-11-21T16:11:42.522Z,98974.72
2022-11-21T16:12:44.497Z,98967.59
2022-11-21T16:13:50.621Z,98967.41
2022-11-21T16:14:53.393Z,98969.41
2022-11-21T16:15:55.360Z,98965.81
2022-11-21T16:16:57.430Z,98961.30
2022-11-21T16:17:59.407Z,98969.41
2022-11-21T16:19:01.298Z,98958.89
2022-11-21T16:20:04.567Z,98955.30
2022-11-21T16:21:08.373Z,98956.05
2022-11-21T16:22:10.258Z,98948.58
2022-11-21T16:23:13.097Z,98952.55
2022-11-21T16:24:15.032Z,98940.47
2022-11-21T16:25:17.233Z,98942.23
2022-11-21T16:26:19.312Z,98938.02
2022-11-21T16:27:21.202Z,98937.12
2022-11-21T16:28:24.152Z,98927.65
2022-11-21T16:29:26.410Z,98933.65
2022-11-21T16:30:29.249Z,98929.85
2022-11-21T16:31:31.957Z,98927.45
2022-11-21T16:32:33.924Z,98920.96
2022-11-21T16:33:38.464Z,98921.06
2022-11-21T16:34:40.363Z,98915.80
2022-11-21T16:35:42.769Z,98912.41
2022-11-21T16:36:44.959Z,98908.04
2022-11-21T16:37:47.225Z,98905.67
2022-11-21T16:38:50.283Z,98908.81
2022-11-21T16:39:52.255Z,98895.89
2022-11-21T16:41:00.702Z,98902.73
2022-11-21T16:42:02.711Z,98895.17
2022-11-21T16:43:12.532Z,98897.91
2022-11-21T16:44:15.832Z,98903.91
2022-11-21T16:45:17.702Z,98902.94
2022-11-21T16:46:22.645Z,98901.41
2022-11-21T16:47:24.582Z,98895.26
2022-11-21T16:48:28.443Z,98900.17
2022-11-21T16:49:30.953Z,98901.10
2022-11-21T16:50:33.679Z,98899.39
2022-11-21T16:51:35.705Z,98897.67
2022-11-21T16:52:37.543Z,98890.84
2022-11-21T16:53:41.099Z,98890.05
2022-11-21T16:54:42.993Z,98886.37
2022-11-21T16:55:44.833Z,98882.16
2022-11-21T16:56:47.103Z,98873.30
2022-11-21T16:57:49.653Z,98880.37
2022-11-21T16:58:51.913Z,98876.84
2022-11-21T16:59:53.795Z,98876.00
2022-11-21T17:00:55.939Z,98876.84
2022-11-21T17:01:59.033Z,98873.40
2022-11-21T17:03:01.498Z,98874.84
2022-11-21T17:04:03.502Z,98877.72
2022-11-21T17:05:06.566Z,98862.88
2022-11-21T17:06:11.963Z,98857.72
2022-11-21T17:07:13.995Z,98859.43
2022-11-21T17:08:16.085Z,98858.72
2022-11-21T17:09:18.847Z,98854.44
2022-11-21T17:10:20.850Z,98866.37
2022-11-21T17:11:25.524Z,98855.90
2022-11-21T17:12:27.428Z,98860.95
2022-11-21T17:13:29.655Z,98861.00
2022-11-21T17:14:31.724Z,98865.58
2022-11-21T17:15:33.793Z,98865.42
2022-11-21T17:16:36.703Z,98858.72
2022-11-21T17:17:39.518Z,98854.95
2022-11-21T17:18:42.213Z,98847.30
2022-11-21T17:19:45.574Z,98857.77
2022-11-21T17:20:47.634Z,98846.62
2022-11-21T17:21:49.502Z,98852.61
2022-11-21T17:22:51.379Z,98853.45
2022-11-21T17:23:54.030Z,98849.02
2022-11-21T17:24:55.969Z,98845.70
2022-11-21T17:26:03.810Z,98842.09
2022-11-21T17:27:05.723Z,98845.94
2022-11-21T17:28:07.593Z,98827.55
2022-11-21T17:29:09.540Z,98836.20
2022-11-21T17:30:13.265Z,98835.17
2022-11-21T17:31:15.413Z,98828.07
2022-11-21T17:32:18.197Z,98836.72
2022-11-21T17:33:20.172Z,98827.55
2022-11-21T17:34:22.697Z,98829.02
2022-11-21T17:35:24.837Z,98826.30
2022-11-21T17:36:28.979Z,98830.07
2022-11-21T17:37:30.977Z,98828.23
2022-11-21T17:38:33.894Z,98828.96
2022-11-21T17:39:36.550Z,98819.55
2022-11-21T17:40:38.702Z,98806.58
2022-11-21T17:41:40.676Z,98806.58
2022-11-21T17:42:42.545Z,98808.80
2022-11-21T17:43:47.227Z,98809.95
2022-11-21T17:44:49.572Z,98807.97
2022-11-21T17:45:54.627Z,98809.38
2022-11-21T17:46:56.655Z,98807.13
2022-11-21T17:47:58.642Z,98801.16
2022-11-21T17:49:00.494Z,98795.62
2022-11-21T17:50:06.390Z,98794.78
2022-11-21T17:51:11.936Z,98788.64
2022-11-21T17:52:13.950Z,98788.08
2022-11-21T17:53:17.173Z,98785.58
2022-11-21T17:54:19.208Z,98786.39
2022-11-21T17:55:21.181Z,98785.30
2022-11-21T17:56:25.753Z,98781.86
2022-11-21T17:57:30.324Z,98782.98
2022-11-21T17:58:33.655Z,98779.48
2022-11-21T17:59:35.527Z,98778.64
2022-11-21T18:00:37.493Z,98774.16
2022-11-21T18:01:40.533Z,98775.73
2022-11-21T18:02:42.919Z,98772.56
2022-11-21T20:49:45.220Z,98736.08
2022-11-21T20:54:08.317Z,98740.54
2022-11-21T20:55:11.419Z,98730.29
2022-11-21T20:56:13.602Z,98725.14
2022-11-21T20:57:15.908Z,98725.83
2022-11-21T20:58:18.863Z,98723.13
2022-11-21T20:59:20.956Z,98723.02
2022-11-21T21:00:22.925Z,98731.50
2022-11-21T21:01:24.894Z,98722.91
2022-11-21T21:02:27.006Z,98727.06
2022-11-21T21:03:28.959Z,98726.70
2022-11-21T21:04:30.924Z,98729.06
2022-11-21T21:05:34.963Z,98725.15
2022-11-21T21:06:37.146Z,98734.11
2022-11-21T21:07:39.976Z,98726.30
2022-11-21T21:08:42.809Z,98732.27
2022-11-21T21:09:44.969Z,98732.43
2022-11-21T21:11:05.221Z,98735.66
2022-11-21T21:11:53.045Z,98734.00
2022-11-21T21:12:56.564Z,98738.84
2022-11-21T21:13:58.445Z,98741.13
2022-11-21T21:15:01.099Z,98735.05
2022-11-21T21:16:06.383Z,98744.88
2022-11-21T21:17:08.296Z,98742.43
2022-11-21T21:18:10.149Z,98736.49
2022-11-21T21:19:12.057Z,98744.98
2022-11-21T21:20:15.490Z,98752.22
2022-11-21T21:21:20.000Z,98744.70
2022-11-21T21:22:22.230Z,98744.77
2022-11-21T21:23:24.248Z,98739.61
2022-11-21T21:24:26.433Z,98738.25
2022-11-21T21:25:28.302Z,98739.80
2022-11-21T21:26:38.631Z,98737.92